Time;durP1;ratioP1;P1;durP2;ratioP2;P2;SDS_P1;SDS_P2;PMS_P1;PMS_P2;Temp;Humidity;BMP_temperature;BMP_pressure;BME280_temperature;BME280_humidity;BME280_pressure;Samples;Min_cycle;Max_cycle;Signal;HPM_P1;HPM_P2
2021/12/23 00:02:14;;;;;;;2.45;2.25;;;21.60;40.50;;;;;;5064115;28;43820;-61
2021/12/23 00:04:42;;;;;;;2.60;2.40;;;21.50;40.40;;;;;;5056046;28;43448;-61
2021/12/23 00:07:09;;;;;;;2.67;2.47;;;21.50;40.40;;;;;;5064701;28;43587;-61
2021/12/23 00:12:17;;;;;;;2.90;2.70;;;21.50;40.40;;;;;;5062763;28;44748;-61
2021/12/23 00:14:46;;;;;;;2.58;2.38;;;21.50;40.40;;;;;;5062232;28;43499;-61
2021/12/23 00:17:26;;;;;;;2.60;2.50;;;21.50;40.50;;;;;;5067820;28;44572;-61
2021/12/23 00:25:13;;;;;;;2.70;2.50;;;21.40;40.50;;;;;;5057639;28;43475;-61
2021/12/23 00:27:41;;;;;;;2.90;2.70;;;21.40;40.50;;;;;;5059269;28;43451;-61
2021/12/23 00:30:09;;;;;;;3.10;2.80;;;21.40;40.50;;;;;;5059757;28;43461;-61
2021/12/23 00:32:37;;;;;;;2.85;2.42;;;21.40;40.50;;;;;;5059063;28;43804;-61
2021/12/23 00:35:05;;;;;;;2.80;2.58;;;21.40;40.50;;;;;;5060817;28;43700;-61
2021/12/23 00:37:42;;;;;;;2.90;2.70;;;21.30;40.50;;;;;;5063116;28;43439;-61
2021/12/23 00:40:12;;;;;;;2.70;2.50;;;21.30;40.50;;;;;;5056056;28;43935;-61
2021/12/23 00:42:40;;;;;;;3.30;3.00;;;21.30;40.50;;;;;;5065256;28;44704;-61
2021/12/23 00:45:08;;;;;;;2.78;2.58;;;21.30;40.50;;;;;;5069595;28;44051;-61
2021/12/23 00:47:36;;;;;;;2.88;2.67;;;21.30;40.50;;;;;;5063581;28;43360;-61
2021/12/23 00:50:04;;;;;;;2.88;2.67;;;21.30;40.50;;;;;;5051154;28;43492;-61
2021/12/23 00:52:35;;;;;;;2.70;2.50;;;21.30;40.50;;;;;;5065494;28;44095;-62
2021/12/23 00:55:05;;;;;;;2.80;2.60;;;21.20;40.50;;;;;;5061966;28;43666;-61
2021/12/23 00:57:38;;;;;;;2.67;2.47;;;21.30;40.50;;;;;;5062107;28;43513;-61
2021/12/23 01:00:19;;;;;;;2.80;2.60;;;21.20;40.50;;;;;;5054457;28;43491;-61
2021/12/23 01:02:47;;;;;;;2.72;2.53;;;21.20;40.50;;;;;;5048344;28;44995;-61
2021/12/23 01:05:19;;;;;;;2.90;2.70;;;21.20;40.50;;;;;;5050259;28;43517;-61
2021/12/23 01:07:48;;;;;;;3.17;2.95;;;21.20;40.50;;;;;;5056159;28;43412;-61
2021/12/23 01:10:16;;;;;;;2.72;2.53;;;21.20;40.50;;;;;;5051192;28;43512;-61
2021/12/23 01:12:51;;;;;;;2.80;2.60;;;21.20;40.50;;;;;;5057451;28;43963;-61
2021/12/23 01:15:58;;;;;;;2.83;2.63;;;21.20;40.60;;;;;;5060630;28;43714;-61
2021/12/23 01:18:18;;;;;;;2.75;2.55;;;21.20;40.50;;;;;;5054096;28;43452;-61
2021/12/23 01:20:52;;;;;;;2.95;2.75;;;21.20;40.60;;;;;;5054036;28;43470;-61
2021/12/23 01:23:23;;;;;;;2.90;2.70;;;21.20;40.60;;;;;;5058499;28;44747;-61
2021/12/23 01:25:53;;;;;;;3.20;2.90;;;21.10;40.60;;;;;;5059916;28;43518;-61
2021/12/23 01:28:21;;;;;;;3.28;2.97;;;21.10;40.60;;;;;;5056382;28;43462;-60
2021/12/23 01:30:49;;;;;;;3.00;2.80;;;21.10;40.60;;;;;;5051188;28;43496;-61
2021/12/23 01:33:17;;;;;;;3.22;3.00;;;21.10;40.60;;;;;;5061691;28;44989;-60
2021/12/23 01:35:47;;;;;;;3.00;2.80;;;21.10;40.60;;;;;;5059305;28;43689;-61
2021/12/23 01:38:14;;;;;;;3.23;3.03;;;21.10;40.60;;;;;;5056144;28;43519;-61
2021/12/23 01:40:44;;;;;;;3.00;2.80;;;21.10;40.60;;;;;;5062950;28;43471;-61
2021/12/23 01:43:17;;;;;;;2.97;2.78;;;21.00;40.60;;;;;;5066048;28;44692;-61
2021/12/23 01:45:47;;;;;;;3.10;2.90;;;21.00;40.60;;;;;;5057804;28;43444;-61
2021/12/23 01:48:16;;;;;;;3.00;2.80;;;21.00;40.70;;;;;;5067241;28;43416;-62
2021/12/23 01:50:44;;;;;;;2.85;2.65;;;21.00;40.80;;;;;;5065821;28;43459;-61
2021/12/23 01:53:11;;;;;;;3.10;2.90;;;21.00;40.70;;;;;;5062483;28;44726;-61
2021/12/23 01:55:39;;;;;;;3.10;2.80;;;21.00;40.70;;;;;;5058121;28;43655;-61
2021/12/23 01:58:07;;;;;;;3.08;2.88;;;20.90;41.40;;;;;;5067201;28;43509;-61
2021/12/23 02:00:36;;;;;;;3.00;2.80;;;20.90;40.70;;;;;;5067491;28;43470;-61
2021/12/23 02:03:05;;;;;;;3.13;2.92;;;20.90;40.60;;;;;;5061650;28;44701;-61
2021/12/23 02:05:33;;;;;;;3.20;3.00;;;20.90;40.70;;;;;;5059768;28;44010;-61
2021/12/23 02:08:13;;;;;;;3.17;2.97;;;20.90;40.70;;;;;;5066694;28;43418;-61
2021/12/23 02:10:42;;;;;;;3.60;3.30;;;20.90;40.70;;;;;;5065710;28;43473;-61
2021/12/23 02:13:10;;;;;;;3.13;2.83;;;20.90;40.80;;;;;;5067654;28;44763;-61
2021/12/23 02:15:37;;;;;;;3.20;2.97;;;20.80;40.70;;;;;;5064371;28;44120;-61
2021/12/23 02:18:05;;;;;;;3.15;2.85;;;20.80;40.80;;;;;;5068640;28;43440;-61
2021/12/23 02:20:35;;;;;;;3.45;3.15;;;20.80;40.80;;;;;;5060159;28;43436;-61
2021/12/23 02:23:03;;;;;;;3.33;3.03;;;20.80;40.80;;;;;;5056036;28;43800;-61
2021/12/23 02:25:31;;;;;;;3.70;3.30;;;20.80;40.80;;;;;;5067172;28;43901;-61
2021/12/23 02:28:04;;;;;;;3.47;3.17;;;20.80;40.90;;;;;;5061461;28;43460;-61
2021/12/23 02:30:32;;;;;;;3.38;3.13;;;20.80;40.80;;;;;;5058907;28;43397;-61
2021/12/23 02:32:59;;;;;;;4.18;3.80;;;20.80;40.80;;;;;;5056178;28;44035;-61
2021/12/23 02:35:27;;;;;;;3.25;2.95;;;20.70;40.70;;;;;;5048305;28;43782;-61
2021/12/23 02:37:55;;;;;;;3.58;3.28;;;20.70;40.70;;;;;;5063074;28;43424;-60
2021/12/23 02:40:42;;;;;;;3.22;3.03;;;20.70;40.70;;;;;;5060461;28;43459;-62
2021/12/23 02:43:17;;;;;;;3.47;3.17;;;20.70;40.70;;;;;;5054513;28;45045;-61
2021/12/23 02:45:50;;;;;;;3.40;3.10;;;20.70;40.80;;;;;;5062680;28;43415;-61
2021/12/23 02:48:21;;;;;;;3.50;3.20;;;20.70;40.80;;;;;;5064474;28;43426;-61
2021/12/23 02:50:50;;;;;;;;;;;20.60;40.70;;;;;;5062018;28;43505;-61
2021/12/23 02:53:19;;;;;;;3.50;3.20;;;20.60;40.70;;;;;;5057992;28;43837;-61
2021/12/23 02:55:46;;;;;;;3.22;2.92;;;20.60;40.80;;;;;;5061431;28;43498;-61
2021/12/23 02:58:14;;;;;;;3.30;2.97;;;20.60;40.80;;;;;;5063204;28;43441;-61
2021/12/23 03:00:44;;;;;;;3.60;3.30;;;20.60;40.80;;;;;;5060242;28;43508;-61
2021/12/23 03:03:12;;;;;;;3.53;3.22;;;20.60;41.50;;;;;;5063336;28;44975;-61
2021/12/23 03:05:39;;;;;;;3.30;3.00;;;20.60;40.90;;;;;;5060684;28;44064;-61
2021/12/23 03:08:07;;;;;;;3.45;3.15;;;20.60;40.90;;;;;;5061408;28;43460;-61
2021/12/23 03:10:34;;;;;;;3.50;3.20;;;20.60;40.80;;;;;;5059010;28;43459;-61
2021/12/23 03:13:02;;;;;;;3.40;3.10;;;20.60;40.90;;;;;;5062727;28;44723;-61
2021/12/23 03:15:29;;;;;;;3.25;3.00;;;20.60;40.90;;;;;;5061662;28;43707;-61
2021/12/23 03:17:56;;;;;;;3.05;2.85;;;20.50;40.90;;;;;;5055763;28;43393;-61
2021/12/23 03:20:24;;;;;;;3.20;2.90;;;20.50;41.00;;;;;;5057969;28;43438;-61
2021/12/23 03:22:51;;;;;;;3.30;3.00;;;20.50;41.00;;;;;;5060698;28;43763;-61
2021/12/23 03:25:19;;;;;;;3.25;2.97;;;20.50;41.00;;;;;;5063616;28;43435;-61
2021/12/23 03:27:46;;;;;;;3.58;3.28;;;20.50;41.00;;;;;;5059105;28;43393;-61
2021/12/23 03:30:15;;;;;;;3.08;2.80;;;20.50;41.00;;;;;;5065555;28;43521;-61
2021/12/23 03:32:42;;;;;;;3.55;3.25;;;20.50;41.00;;;;;;5060044;28;43810;-61
2021/12/23 03:35:10;;;;;;;3.58;3.28;;;20.50;41.00;;;;;;5061303;28;44076;-61
2021/12/23 03:37:37;;;;;;;3.10;2.90;;;20.50;41.00;;;;;;5058647;28;43514;-61
2021/12/23 03:40:06;;;;;;;3.38;3.17;;;20.50;41.00;;;;;;5061962;28;43487;-61
2021/12/23 03:42:34;;;;;;;2.97;2.78;;;20.50;41.00;;;;;;5061015;28;44665;-61
2021/12/23 03:45:02;;;;;;;3.42;3.13;;;20.40;40.90;;;;;;5059844;28;43754;-61
2021/12/23 03:47:29;;;;;;;3.40;3.15;;;20.50;41.00;;;;;;5058317;28;43491;-61
2021/12/23 03:49:57;;;;;;;3.28;3.03;;;20.50;41.00;;;;;;5063860;28;43532;-61
2021/12/23 03:52:25;;;;;;;3.53;3.22;;;20.50;41.00;;;;;;5043780;28;44681;-61
2021/12/23 03:54:53;;;;;;;2.92;2.72;;;20.40;41.00;;;;;;5055043;28;43635;-61
2021/12/23 03:57:20;;;;;;;3.17;2.95;;;20.40;41.00;;;;;;5066424;28;43410;-61
2021/12/23 03:59:48;;;;;;;3.30;3.10;;;20.40;41.00;;;;;;5062627;28;43458;-61
2021/12/23 04:02:15;;;;;;;3.10;2.90;;;20.40;41.00;;;;;;5064718;28;43862;-61
2021/12/23 04:04:44;;;;;;;3.00;2.80;;;20.40;41.00;;;;;;5055163;28;43430;-61
2021/12/23 04:07:11;;;;;;;3.38;3.08;;;20.40;41.00;;;;;;5065648;28;43535;-61
2021/12/23 04:09:39;;;;;;;3.30;3.00;;;20.40;41.00;;;;;;5055968;28;43543;-61
2021/12/23 04:12:06;;;;;;;3.13;2.92;;;20.40;41.00;;;;;;5056651;28;44690;-62
2021/12/23 04:14:34;;;;;;;3.33;3.10;;;20.30;40.90;;;;;;5061829;28;43404;-61
2021/12/23 04:17:01;;;;;;;3.47;3.17;;;20.30;41.00;;;;;;5072711;28;43410;-61
2021/12/23 04:19:31;;;;;;;3.00;2.80;;;20.30;41.00;;;;;;5060828;28;43506;-61
2021/12/23 04:22:00;;;;;;;3.00;2.78;;;20.30;41.00;;;;;;5066636;28;43810;-61
2021/12/23 04:24:27;;;;;;;3.40;3.10;;;20.30;41.00;;;;;;5052689;28;43702;-62
2021/12/23 04:26:55;;;;;;;3.17;2.88;;;20.30;41.00;;;;;;5064748;28;43352;-61
2021/12/23 04:29:23;;;;;;;3.28;2.97;;;20.30;41.00;;;;;;5060577;28;43498;-61
2021/12/23 04:31:50;;;;;;;3.10;2.90;;;20.30;41.00;;;;;;5064797;28;44316;-61
2021/12/23 04:34:18;;;;;;;3.63;3.17;;;20.20;41.00;;;;;;5055303;28;43688;-61
2021/12/23 04:36:46;;;;;;;3.25;2.95;;;20.20;41.00;;;;;;5063772;28;43463;-61
2021/12/23 04:39:13;;;;;;;3.58;3.28;;;20.20;41.00;;;;;;5059399;28;43402;-61
2021/12/23 04:41:41;;;;;;;3.50;3.20;;;20.20;41.00;;;;;;5057397;28;44708;-61
2021/12/23 04:44:08;;;;;;;3.33;3.13;;;20.20;41.00;;;;;;5060052;28;43724;-61
2021/12/23 04:46:36;;;;;;;3.40;3.10;;;20.20;41.00;;;;;;5060567;28;43431;-61
2021/12/23 04:49:03;;;;;;;3.13;2.88;;;20.20;41.00;;;;;;5058800;28;43446;-61
2021/12/23 04:51:31;;;;;;;3.25;2.95;;;20.20;41.10;;;;;;5055231;28;44949;-61
2021/12/23 04:53:59;;;;;;;3.53;3.22;;;20.20;41.00;;;;;;5060336;28;43499;-61
2021/12/23 04:56:26;;;;;;;3.35;2.90;;;20.20;41.00;;;;;;5057975;28;43424;-61
2021/12/23 04:58:54;;;;;;;3.30;3.00;;;20.10;41.00;;;;;;5042590;28;43525;-61
2021/12/23 05:01:28;;;;;;;4.18;3.03;;;20.10;41.10;;;;;;5035792;28;44657;-62
2021/12/23 05:03:56;;;;;;;3.55;3.25;;;20.10;41.00;;;;;;5058331;28;43493;-61
2021/12/23 05:06:23;;;;;;;2.88;2.67;;;20.10;41.10;;;;;;5049448;28;43581;-62
2021/12/23 05:08:52;;;;;;;3.30;3.10;;;20.10;41.00;;;;;;5059629;28;43447;-61
2021/12/23 05:11:19;;;;;;;3.20;3.00;;;20.10;41.10;;;;;;5057727;28;43814;-61
2021/12/23 05:13:47;;;;;;;3.10;2.80;;;20.10;41.00;;;;;;5060389;28;43638;-61
2021/12/23 05:16:17;;;;;;;3.00;2.80;;;20.10;41.00;;;;;;5060207;28;44034;-61
2021/12/23 05:18:45;;;;;;;2.83;2.63;;;20.00;41.00;;;;;;5057554;28;43401;-62
2021/12/23 05:21:13;;;;;;;3.22;2.97;;;20.10;41.00;;;;;;5062198;28;44404;-62
2021/12/23 05:23:41;;;;;;;2.92;2.72;;;20.00;41.00;;;;;;5066965;28;43437;-61
2021/12/23 05:26:09;;;;;;;2.90;2.70;;;20.00;41.00;;;;;;5064816;28;43390;-61
2021/12/23 05:28:36;;;;;;;2.95;2.75;;;20.00;41.70;;;;;;5061310;28;43447;-61
2021/12/23 05:31:05;;;;;;;3.38;3.13;;;20.00;41.10;;;;;;5068180;28;43819;-61
2021/12/23 05:33:33;;;;;;;3.30;3.00;;;20.00;41.10;;;;;;5068188;28;44261;-61
2021/12/23 05:36:01;;;;;;;3.10;2.90;;;20.00;41.00;;;;;;5064165;28;43462;-61
2021/12/23 05:38:29;;;;;;;3.10;2.90;;;20.00;41.00;;;;;;5060088;28;43539;-61
2021/12/23 05:40:56;;;;;;;3.40;3.10;;;19.90;40.90;;;;;;5067798;28;43861;-61
2021/12/23 05:43:24;;;;;;;3.38;3.10;;;20.00;41.00;;;;;;5067852;28;43696;-61
2021/12/23 05:45:51;;;;;;;3.47;3.17;;;19.90;40.90;;;;;;5062833;28;43532;-61
2021/12/23 05:48:19;;;;;;;3.10;2.90;;;19.90;40.90;;;;;;5059595;28;43575;-61
2021/12/23 05:50:46;;;;;;;3.20;3.00;;;19.90;41.00;;;;;;5062735;28;44736;-62
2021/12/23 05:53:14;;;;;;;3.72;3.42;;;19.90;41.00;;;;;;5064282;28;43488;-61
2021/12/23 05:55:41;;;;;;;3.50;3.20;;;19.90;41.10;;;;;;5057552;28;43546;-61
2021/12/23 05:58:08;;;;;;;3.40;2.88;;;19.90;41.00;;;;;;5060909;28;43443;-61
2021/12/23 06:00:36;;;;;;;3.15;2.90;;;19.90;41.10;;;;;;5061126;28;43779;-61
2021/12/23 06:03:04;;;;;;;3.28;2.97;;;19.90;41.10;;;;;;5062646;28;43510;-62
2021/12/23 06:05:31;;;;;;;3.17;2.88;;;19.80;41.00;;;;;;5056516;28;43430;-61
2021/12/23 06:07:59;;;;;;;3.47;3.17;;;19.80;41.00;;;;;;5062621;28;43474;-62
2021/12/23 06:10:28;;;;;;;3.33;3.03;;;19.80;41.00;;;;;;5062411;28;44712;-61
2021/12/23 06:12:56;;;;;;;3.30;3.00;;;19.80;41.00;;;;;;5066239;28;43678;-61
2021/12/23 06:15:24;;;;;;;3.30;2.97;;;19.80;41.10;;;;;;5063772;28;43463;-61
2021/12/23 06:17:51;;;;;;;3.58;3.28;;;19.80;41.10;;;;;;5068924;28;44150;-61
2021/12/23 06:20:19;;;;;;;3.60;3.30;;;19.80;41.10;;;;;;5053081;28;44811;-62
2021/12/23 06:22:46;;;;;;;3.67;3.38;;;19.70;41.10;;;;;;5060690;28;43507;-61
2021/12/23 06:25:14;;;;;;;3.30;3.00;;;19.70;41.10;;;;;;5063692;28;43489;-61
2021/12/23 06:27:42;;;;;;;3.47;3.17;;;19.70;41.00;;;;;;5061050;28;43446;-61
2021/12/23 06:30:16;;;;;;;3.33;3.10;;;19.70;41.70;;;;;;5062985;28;43819;-61
2021/12/23 06:32:49;;;;;;;3.53;3.22;;;19.70;41.00;;;;;;5064411;28;43491;-61
2021/12/23 06:35:19;;;;;;;3.35;3.15;;;19.70;41.10;;;;;;5060777;28;43521;-61
2021/12/23 06:37:47;;;;;;;3.17;2.90;;;19.70;41.00;;;;;;5062774;28;43530;-61
2021/12/23 06:40:15;;;;;;;3.78;3.38;;;19.70;41.10;;;;;;5058606;28;44716;-61
2021/12/23 06:42:44;;;;;;;3.10;2.90;;;19.70;41.10;;;;;;5058810;28;43945;-61
2021/12/23 06:45:13;;;;;;;3.60;3.30;;;19.60;41.10;;;;;;5071663;28;43462;-61
2021/12/23 06:47:43;;;;;;;3.30;3.10;;;19.60;41.10;;;;;;5062547;28;43482;-61
2021/12/23 06:50:12;;;;;;;3.80;3.50;;;19.60;41.10;;;;;;5057731;28;43786;-62
2021/12/23 06:52:40;;;;;;;3.00;2.80;;;19.60;41.10;;;;;;5055072;28;44129;-61
2021/12/23 06:55:11;;;;;;;3.17;2.97;;;19.60;41.10;;;;;;5061404;28;43405;-61
2021/12/23 06:57:39;;;;;;;3.58;3.28;;;19.60;41.10;;;;;;5061767;28;43519;-61
2021/12/23 07:00:14;;;;;;;3.60;3.10;;;19.50;41.10;;;;;;5053996;28;44679;-61
2021/12/23 07:02:43;;;;;;;3.50;3.20;;;19.50;41.20;;;;;;5066331;28;43697;-61
2021/12/23 07:05:12;;;;;;;3.38;2.90;;;19.50;41.20;;;;;;5057068;28;43467;-61
2021/12/23 07:07:57;;;;;;;3.15;2.90;;;19.50;41.20;;;;;;5056187;28;43467;-61
2021/12/23 07:10:27;;;;;;;3.35;3.10;;;19.50;41.20;;;;;;5048396;28;45450;-61
2021/12/23 07:12:56;;;;;;;3.25;3.05;;;19.50;41.20;;;;;;5055044;28;43875;-61
2021/12/23 07:15:24;;;;;;;3.40;3.10;;;19.50;41.20;;;;;;5051237;28;43507;-61
2021/12/23 07:17:54;;;;;;;3.47;3.17;;;19.50;41.20;;;;;;5058427;28;43442;-61
2021/12/23 07:20:23;;;;;;;3.17;2.97;;;19.50;41.20;;;;;;5060031;28;43775;-62
2021/12/23 07:22:51;;;;;;;3.38;3.08;;;19.50;41.20;;;;;;5042984;28;43663;-61
2021/12/23 07:25:19;;;;;;;3.53;3.22;;;19.40;41.30;;;;;;5063435;28;43480;-61
2021/12/23 07:27:47;;;;;;;3.50;3.20;;;19.40;41.20;;;;;;5060498;28;43459;-61
2021/12/23 07:30:18;;;;;;;3.10;2.90;;;19.40;41.20;;;;;;5065241;28;44659;-61
2021/12/23 07:32:47;;;;;;;3.97;3.38;;;19.40;41.20;;;;;;5062997;28;43412;-61
2021/12/23 07:35:15;;;;;;;3.40;3.10;;;19.40;41.30;;;;;;5042780;28;43472;-61
2021/12/23 07:37:46;;;;;;;3.47;3.17;;;19.40;41.30;;;;;;5055203;28;44001;-62
2021/12/23 07:40:16;;;;;;;3.53;3.22;;;19.40;41.40;;;;;;5061631;28;43808;-61
2021/12/23 07:42:53;;;;;;;3.20;2.90;;;19.30;41.30;;;;;;5061963;28;44025;-61
2021/12/23 07:45:23;;;;;;;3.50;3.20;;;19.40;41.50;;;;;;5056492;28;43333;-61
2021/12/23 07:47:50;;;;;;;3.28;3.05;;;19.40;41.50;;;;;;5054355;28;43462;-62
2021/12/23 07:50:19;;;;;;;3.53;3.22;;;19.30;41.40;;;;;;5045547;28;43953;-61
2021/12/23 07:52:46;;;;;;;3.60;3.30;;;19.30;41.40;;;;;;5059868;28;43510;-61
2021/12/23 07:55:14;;;;;;;3.50;3.20;;;19.40;41.50;;;;;;5055111;28;43451;-61
2021/12/23 07:57:42;;;;;;;3.65;3.35;;;19.30;41.30;;;;;;5065780;28;43933;-62
2021/12/23 08:00:10;;;;;;;3.60;3.30;;;19.40;41.40;;;;;;5058957;28;43806;-62
2021/12/23 08:02:42;;;;;;;;;;;19.40;41.40;;;;;;5060822;28;44339;-61
2021/12/23 08:05:21;;;;;;;4.10;3.70;;;19.40;41.30;;;;;;5096331;27;44297;-63
2021/12/23 08:07:48;;;;;;;3.80;3.50;;;19.40;41.40;;;;;;5081047;27;43432;-62
2021/12/23 08:10:15;;;;;;;3.40;3.10;;;19.40;41.30;;;;;;5078682;27;43513;-63
2021/12/23 08:12:43;;;;;;;3.85;3.55;;;19.40;41.30;;;;;;5079679;27;43451;-62
2021/12/23 08:15:11;;;;;;;3.58;3.28;;;19.40;41.30;;;;;;5080050;27;44771;-62
2021/12/23 08:17:39;;;;;;;3.97;3.67;;;19.40;41.30;;;;;;5078108;28;44230;-63
2021/12/23 08:20:11;;;;;;;3.33;3.03;;;19.50;41.30;;;;;;5079441;27;43441;-62
2021/12/23 08:22:39;;;;;;;3.63;3.33;;;19.50;41.30;;;;;;5078734;28;43395;-62
2021/12/23 08:25:08;;;;;;;4.22;3.40;;;19.50;41.20;;;;;;5079992;28;44849;-62
2021/12/23 08:27:35;;;;;;;3.67;3.38;;;19.50;41.20;;;;;;5080225;27;43486;-62
2021/12/23 08:30:08;;;;;;;3.80;3.15;;;19.50;41.20;;;;;;5077957;28;43407;-62
2021/12/23 08:32:37;;;;;;;3.88;3.58;;;19.50;41.20;;;;;;5080835;27;43442;-62
2021/12/23 08:35:06;;;;;;;3.60;3.30;;;19.50;41.20;;;;;;5079426;27;45007;-62
2021/12/23 08:37:35;;;;;;;4.25;3.75;;;19.50;41.10;;;;;;5080450;27;44067;-62
2021/12/23 08:40:05;;;;;;;3.97;3.65;;;19.50;41.20;;;;;;5079684;27;43432;-62
2021/12/23 08:42:35;;;;;;;3.75;3.45;;;19.50;41.10;;;;;;5080426;27;43443;-62
2021/12/23 08:45:05;;;;;;;3.78;3.47;;;19.50;41.10;;;;;;5077875;28;43805;-62
2021/12/23 08:47:33;;;;;;;4.30;3.90;;;19.60;41.80;;;;;;5080553;27;43477;-62
2021/12/23 08:50:08;;;;;;;3.90;3.60;;;19.60;41.10;;;;;;5079727;27;43422;-62
2021/12/23 08:52:36;;;;;;;3.90;3.55;;;19.60;41.10;;;;;;5070217;27;43580;-61
2021/12/23 08:55:08;;;;;;;3.63;3.33;;;19.60;41.20;;;;;;5061200;28;44729;-61
2021/12/23 08:57:35;;;;;;;3.90;3.60;;;19.60;41.20;;;;;;5062052;28;43621;-61
2021/12/23 09:00:07;;;;;;;3.35;3.05;;;19.60;41.20;;;;;;5061497;27;44127;-62
2021/12/23 09:02:35;;;;;;;4.18;3.47;;;19.60;41.20;;;;;;5059923;28;43566;-62
2021/12/23 09:05:03;;;;;;;3.90;3.53;;;19.60;41.30;;;;;;5061626;27;44718;-61
2021/12/23 09:07:31;;;;;;;4.03;3.60;;;19.60;41.20;;;;;;5064741;27;43660;-61
2021/12/23 09:09:59;;;;;;;3.65;3.35;;;19.60;41.20;;;;;;5062314;27;43650;-62
2021/12/23 09:12:26;;;;;;;3.97;3.67;;;19.70;41.30;;;;;;5061770;27;43625;-62
2021/12/23 09:14:54;;;;;;;5.43;4.00;;;19.60;41.40;;;;;;5058086;28;44686;-66
2021/12/23 09:17:22;;;;;;;5.97;3.92;;;19.70;41.40;;;;;;5048496;28;43716;-63
2021/12/23 09:19:49;;;;;;;3.95;3.60;;;19.70;41.50;;;;;;5049996;28;43666;-63
2021/12/23 09:22:17;;;;;;;4.50;4.10;;;19.70;41.40;;;;;;5048044;28;43707;-62
2021/12/23 09:24:48;;;;;;;4.68;4.20;;;19.80;41.20;;;;;;5048180;28;44039;-63
2021/12/23 09:27:51;;;;;;;4.10;3.78;;;19.90;41.30;;;;;;5049838;28;43571;-63
2021/12/23 09:32:52;;;;;;;4.22;3.80;;;20.00;41.20;;;;;;5049280;28;43671;-64
2021/12/23 09:35:39;;;;;;;6.38;4.22;;;20.10;41.20;;;;;;5048710;28;43795;-62
2021/12/23 09:38:08;;;;;;;5.63;3.72;;;20.20;41.20;;;;;;5050704;28;43803;-63
2021/12/23 09:40:37;;;;;;;4.28;3.88;;;20.30;41.10;;;;;;5048630;28;45054;-61
2021/12/23 09:43:11;;;;;;;4.40;4.00;;;20.40;41.00;;;;;;5048051;28;43605;-62
2021/12/23 09:45:41;;;;;;;4.40;3.88;;;20.40;41.00;;;;;;5049334;28;44214;-62
2021/12/23 09:48:09;;;;;;;5.25;4.18;;;20.50;41.10;;;;;;5049457;28;44278;-60
2021/12/23 09:50:40;;;;;;;5.45;3.65;;;20.50;41.10;;;;;;5048465;28;43599;-62
2021/12/23 09:53:08;;;;;;;4.32;3.92;;;20.60;41.00;;;;;;5048418;28;43617;-61
2021/12/23 09:55:38;;;;;;;4.32;3.92;;;20.70;40.80;;;;;;5047646;28;44267;-62
2021/12/23 09:58:06;;;;;;;4.00;3.60;;;20.80;40.80;;;;;;5050258;28;43688;-62
2021/12/23 10:00:37;;;;;;;5.70;3.75;;;20.90;40.70;;;;;;5047712;28;43884;-60
2021/12/23 10:03:06;;;;;;;;;;;21.00;40.60;;;;;;5045159;28;43694;-61
2021/12/23 10:05:35;;;;;;;4.25;3.85;;;21.10;40.50;;;;;;5046433;28;45098;-61
2021/12/23 10:08:05;;;;;;;4.03;3.63;;;21.20;40.50;;;;;;5047015;28;43594;-61
2021/12/23 10:10:54;;;;;;;5.05;3.83;;;21.30;40.30;;;;;;5050012;28;43507;-61
2021/12/23 10:38:09;;;;;;;5.38;4.50;;;22.50;39.30;;;;;;5047013;28;43818;-61
2021/12/23 10:40:43;;;;;;;4.88;4.38;;;22.50;39.20;;;;;;5048003;28;43632;-62
2021/12/23 10:43:28;;;;;;;5.18;4.68;;;22.60;39.10;;;;;;5047050;28;43540;-62
2021/12/23 10:46:03;;;;;;;5.72;4.95;;;22.60;39.10;;;;;;5045685;28;43703;-62
2021/12/23 10:48:34;;;;;;;5.38;4.88;;;22.70;39.00;;;;;;5046000;28;44848;-63
2021/12/23 10:51:08;;;;;;;5.20;4.70;;;22.70;39.00;;;;;;5046709;28;43889;-62
2021/12/23 10:59:22;;;;;;;5.15;4.65;;;22.80;39.10;;;;;;5045084;28;44669;-62
2021/12/23 11:02:18;;;;;;;5.70;4.90;;;22.80;39.30;;;;;;5047607;28;43656;-62
2021/12/23 11:05:19;;;;;;;5.15;4.53;;;22.90;38.90;;;;;;5045505;28;43645;-62
2021/12/23 11:08:06;;;;;;;5.68;5.18;;;22.90;39.00;;;;;;5046049;28;43674;-62
2021/12/23 11:28:44;;;;;;;5.85;5.35;;;23.00;39.20;;;;;;5044561;28;43635;-62
2021/12/23 11:41:18;;;;;;;5.55;5.07;;;23.10;39.20;;;;;;5047197;28;44597;-61
2021/12/23 11:43:52;;;;;;;5.13;4.72;;;23.10;39.20;;;;;;5045369;28;43780;-62
2021/12/23 11:46:40;;;;;;;5.13;4.63;;;23.10;39.20;;;;;;5047278;28;44589;-62
2021/12/23 11:49:10;;;;;;;5.30;4.90;;;23.10;39.30;;;;;;5043255;28;43569;-61
2021/12/23 11:54:11;;;;;;;5.78;5.28;;;23.10;39.30;;;;;;5046955;28;44982;-62
2021/12/23 11:56:45;;;;;;;4.82;4.43;;;23.10;39.30;;;;;;5045536;28;43969;-63
2021/12/23 11:59:15;;;;;;;5.47;4.97;;;23.10;39.30;;;;;;5047872;28;43510;-62
2021/12/23 12:01:48;;;;;;;5.18;4.68;;;23.10;39.30;;;;;;5046747;28;43687;-62
2021/12/23 12:04:26;;;;;;;5.90;5.32;;;23.10;39.40;;;;;;5042369;28;44938;-62
2021/12/23 12:06:56;;;;;;;5.85;5.35;;;23.10;39.30;;;;;;5044965;28;43661;-62
2021/12/23 12:09:32;;;;;;;6.60;6.00;;;23.10;39.20;;;;;;5048492;28;44782;-62
2021/12/23 12:12:00;;;;;;;6.40;5.80;;;23.00;39.20;;;;;;5048529;28;44155;-63
2021/12/23 12:14:39;;;;;;;6.43;5.82;;;23.00;39.30;;;;;;5045567;28;44968;-66
2021/12/23 12:17:36;;;;;;;5.90;5.40;;;22.90;39.60;;;;;;5046807;28;43799;-62
2021/12/23 12:20:03;;;;;;;5.60;5.15;;;22.90;39.50;;;;;;5046279;28;43644;-62
2021/12/23 12:22:50;;;;;;;6.10;5.50;;;22.90;39.60;;;;;;5048495;28;43712;-63
2021/12/23 12:25:23;;;;;;;5.60;5.10;;;22.90;39.60;;;;;;5046325;28;43812;-62
2021/12/23 12:27:51;;;;;;;5.32;4.82;;;22.80;39.70;;;;;;5045522;28;43706;-62
2021/12/23 12:30:21;;;;;;;5.50;5.00;;;22.80;39.80;;;;;;5047503;28;43572;-62
2021/12/23 12:32:49;;;;;;;5.30;4.80;;;22.80;39.80;;;;;;5045961;28;43597;-62
2021/12/23 12:35:20;;;;;;;5.75;5.25;;;22.80;39.80;;;;;;5045539;28;44768;-63
2021/12/23 12:37:51;;;;;;;5.30;4.90;;;22.80;39.90;;;;;;5045176;28;43591;-62
2021/12/23 12:40:18;;;;;;;5.63;5.13;;;22.80;39.90;;;;;;5046071;28;43621;-63
2021/12/23 12:42:48;;;;;;;5.35;4.90;;;22.80;40.00;;;;;;5045291;28;43564;-62
2021/12/23 12:45:23;;;;;;;7.00;5.55;;;22.70;40.00;;;;;;5048443;28;44752;-61
2021/12/23 12:47:56;;;;;;;5.53;5.03;;;22.70;40.00;;;;;;5048043;28;43565;-62
2021/12/23 12:50:27;;;;;;;5.53;5.03;;;22.70;40.00;;;;;;5046119;28;43539;-62
2021/12/23 12:53:05;;;;;;;5.80;5.30;;;22.70;40.00;;;;;;5049727;28;43668;-62
2021/12/23 12:55:37;;;;;;;6.47;5.88;;;22.70;39.90;;;;;;5049269;28;44729;-62
2021/12/23 12:58:06;;;;;;;5.78;5.13;;;22.70;39.90;;;;;;5047346;28;43838;-61
2021/12/23 13:00:42;;;;;;;5.60;5.10;;;22.60;39.90;;;;;;5049041;28;43663;-62
2021/12/23 13:03:17;;;;;;;5.22;4.82;;;22.60;40.00;;;;;;5046613;28;43636;-62
2021/12/23 13:05:52;;;;;;;5.80;5.20;;;22.60;40.00;;;;;;5048767;28;44969;-63
2021/12/23 13:08:25;;;;;;;5.13;4.63;;;22.50;40.10;;;;;;5048672;28;43743;-62
2021/12/23 13:11:15;;;;;;;5.30;4.90;;;22.50;40.20;;;;;;5046867;28;43576;-62
2021/12/23 13:14:23;;;;;;;6.10;5.15;;;22.50;40.20;;;;;;5050329;28;43676;-62
2021/12/23 13:17:49;;;;;;;5.53;5.03;;;22.40;40.20;;;;;;5047803;28;44729;-62
2021/12/23 13:20:17;;;;;;;5.57;5.07;;;22.40;40.20;;;;;;5050510;28;43654;-63
2021/12/23 13:22:46;;;;;;;6.07;4.88;;;22.40;40.40;;;;;;4137948;27;10000600;-63
2021/12/23 13:25:13;;;;;;;5.45;4.95;;;22.40;40.30;;;;;;4125073;27;10000965;-62
2021/12/23 13:27:42;;;;;;;5.47;4.97;;;22.30;40.40;;;;;;5010642;28;43735;-62
2021/12/23 13:30:11;;;;;;;6.20;5.60;;;22.40;40.40;;;;;;5006181;28;43726;-62
2021/12/23 13:32:39;;;;;;;5.20;4.80;;;22.30;40.50;;;;;;5012310;28;43615;-62
2021/12/23 13:35:15;;;;;;;5.18;4.70;;;22.30;40.50;;;;;;5008785;28;43510;-62
2021/12/23 13:37:47;;;;;;;5.40;4.90;;;22.30;40.50;;;;;;5006644;28;44684;-62
2021/12/23 13:40:38;;;;;;;5.43;5.03;;;22.30;40.50;;;;;;5011181;28;43750;-62
2021/12/23 13:43:05;;;;;;;5.68;5.18;;;22.30;40.50;;;;;;5017947;28;43587;-62
2021/12/23 13:45:33;;;;;;;5.15;4.75;;;22.30;40.50;;;;;;5016160;28;43524;-62
2021/12/23 13:48:05;;;;;;;5.45;4.95;;;22.30;40.50;;;;;;5019073;28;44835;-63
2021/12/23 13:50:33;;;;;;;4.93;4.45;;;22.30;40.50;;;;;;5014255;28;43714;-62
2021/12/23 13:53:00;;;;;;;5.00;4.60;;;22.30;40.50;;;;;;5015113;28;43903;-62
2021/12/23 13:55:28;;;;;;;4.88;4.47;;;22.30;40.50;;;;;;5012872;28;43996;-62
2021/12/23 13:57:59;;;;;;;5.10;4.60;;;22.30;40.50;;;;;;5015934;28;43811;-62
2021/12/23 14:00:32;;;;;;;5.45;4.95;;;22.20;40.50;;;;;;5014253;28;43962;-63
2021/12/23 14:03:14;;;;;;;5.20;4.80;;;22.20;40.40;;;;;;5015118;28;43541;-63
2021/12/23 14:05:49;;;;;;;5.20;4.80;;;22.20;40.50;;;;;;5017292;28;43629;-62
2021/12/23 14:08:20;;;;;;;5.03;4.63;;;22.20;40.60;;;;;;5014594;28;43737;-63
2021/12/23 14:10:48;;;;;;;5.22;4.82;;;22.20;40.60;;;;;;5015013;28;44660;-62
2021/12/23 14:13:20;;;;;;;5.40;4.90;;;22.20;40.50;;;;;;5015557;28;43678;-62
2021/12/23 14:15:57;;;;;;;5.03;4.63;;;22.20;40.60;;;;;;5015113;28;43633;-62
2021/12/23 14:19:00;;;;;;;5.05;4.65;;;22.20;40.60;;;;;;5016217;28;44872;-62